createdAt,value
2023-05-12T00:00:20.686Z,6.45
2023-05-12T00:02:47.436Z,10.38
2023-05-12T00:05:14.025Z,6.70
2023-05-12T00:07:40.378Z,6.93
2023-05-12T00:10:07.103Z,6.00
2023-05-12T00:12:33.483Z,7.60
2023-05-12T00:15:03.398Z,9.55
2023-05-12T00:17:29.996Z,8.80
2023-05-12T00:19:58.775Z,9.90
2023-05-12T00:22:26.861Z,9.30
2023-05-12T00:24:55.750Z,9.80
2023-05-12T00:27:22.403Z,8.13
2023-05-12T00:29:48.837Z,10.52
2023-05-12T00:32:15.847Z,10.10
2023-05-12T00:34:43.319Z,11.25
2023-05-12T00:37:10.181Z,11.85
2023-05-12T00:39:37.890Z,11.00
2023-05-12T00:42:07.371Z,10.82
2023-05-12T00:44:36.991Z,10.98
2023-05-12T00:47:04.362Z,11.68
2023-05-12T00:49:31.803Z,12.35
2023-05-12T00:51:59.161Z,12.95
2023-05-12T00:54:26.892Z,10.85
2023-05-12T00:56:55.858Z,9.15
2023-05-12T00:59:22.208Z,8.77
2023-05-12T01:01:49.743Z,12.38
2023-05-12T01:04:16.415Z,10.48
2023-05-12T01:07:05.574Z,8.65
2023-05-12T01:09:50.415Z,13.65
2023-05-12T01:12:35.446Z,10.35
2023-05-12T01:15:20.716Z,10.02
2023-05-12T01:18:19.665Z,13.50
2023-05-12T01:21:06.328Z,8.80
2023-05-12T01:23:56.188Z,10.18
2023-05-12T01:26:41.534Z,12.48
2023-05-12T01:29:26.559Z,12.98
2023-05-12T01:32:12.565Z,12.45
2023-05-12T01:35:01.252Z,14.32
2023-05-12T01:37:46.271Z,13.00
2023-05-12T01:40:31.898Z,13.00
2023-05-12T01:43:17.345Z,11.95
2023-05-12T01:46:02.419Z,12.07
2023-05-12T01:48:49.945Z,10.02
2023-05-12T01:51:37.372Z,12.70
2023-05-12T01:54:24.686Z,13.50
2023-05-12T01:57:09.565Z,12.85
2023-05-12T01:59:54.670Z,13.07
2023-05-12T02:02:41.456Z,10.38
2023-05-12T02:05:28.325Z,8.20
2023-05-12T02:08:13.106Z,9.00
2023-05-12T02:10:39.612Z,8.23
2023-05-12T02:13:06.227Z,11.45
2023-05-12T02:15:35.136Z,8.95
2023-05-12T02:18:03.627Z,10.65
2023-05-12T02:20:30.259Z,6.07
2023-05-12T02:22:56.958Z,7.28
2023-05-12T02:25:23.505Z,11.23
2023-05-12T02:27:50.072Z,7.18
2023-05-12T02:30:19.088Z,10.68
2023-05-12T02:32:45.956Z,10.93
2023-05-12T02:35:14.701Z,8.93
2023-05-12T02:37:41.056Z,9.05
2023-05-12T02:40:08.211Z,9.35
2023-05-12T02:42:38.385Z,10.77
2023-05-12T02:45:20.146Z,9.23
2023-05-12T02:47:46.544Z,9.23
2023-05-12T02:50:15.114Z,8.82
2023-05-12T02:52:41.795Z,6.43
2023-05-12T02:55:08.366Z,7.07
2023-05-12T02:57:34.872Z,6.70
2023-05-12T03:00:02.260Z,7.03
2023-05-12T03:02:28.754Z,8.07
2023-05-12T03:04:55.175Z,5.53
2023-05-12T03:07:24.833Z,5.85
2023-05-12T03:09:53.863Z,7.78
2023-05-12T03:12:20.236Z,6.90
2023-05-12T03:14:46.676Z,8.98
2023-05-12T03:17:17.864Z,7.13
2023-05-12T03:19:44.348Z,8.67
2023-05-12T03:22:10.749Z,9.52
2023-05-12T03:24:37.156Z,8.88
2023-05-12T03:27:03.712Z,9.32
2023-05-12T03:29:30.211Z,7.55
2023-05-12T03:31:58.917Z,9.02
2023-05-12T03:34:25.325Z,8.02
2023-05-12T03:36:51.779Z,9.95
2023-05-12T03:39:18.168Z,10.23
2023-05-12T03:41:46.945Z,11.70
2023-05-12T03:44:13.613Z,8.10
2023-05-12T03:46:42.521Z,9.77
2023-05-12T03:49:09.773Z,10.98
2023-05-12T03:51:36.278Z,8.23
2023-05-12T03:54:02.919Z,8.43
2023-05-12T03:56:29.454Z,9.40
2023-05-12T03:58:57.396Z,8.73
2023-05-12T04:01:23.836Z,8.90
2023-05-12T04:03:50.426Z,10.02
2023-05-12T04:06:16.986Z,8.75
2023-05-12T04:08:43.452Z,8.95
2023-05-12T04:11:10.598Z,8.88
2023-05-12T04:13:37.247Z,8.73
2023-05-12T04:16:04.005Z,7.40
2023-05-12T04:18:35.916Z,10.10
2023-05-12T04:21:03.004Z,7.65
2023-05-12T04:23:29.635Z,9.10
2023-05-12T04:25:56.728Z,11.30
2023-05-12T04:28:23.119Z,10.45
2023-05-12T04:30:49.514Z,9.77
2023-05-12T04:33:15.995Z,9.98
2023-05-12T04:35:42.413Z,8.85
2023-05-12T04:38:09.451Z,7.47
2023-05-12T04:40:36.097Z,8.85
2023-05-12T04:43:02.482Z,13.65
2023-05-12T04:45:29.005Z,11.27
2023-05-12T04:47:56.154Z,8.93
2023-05-12T04:50:22.609Z,9.18
2023-05-12T04:52:49.025Z,9.93
2023-05-12T04:55:15.723Z,9.60
2023-05-12T04:57:42.190Z,7.65
2023-05-12T05:00:09.307Z,8.13
2023-05-12T05:02:36.013Z,6.60
2023-05-12T05:05:02.579Z,8.27
2023-05-12T05:07:29.049Z,8.68
2023-05-12T05:09:57.810Z,9.10
2023-05-12T05:12:25.677Z,9.13
2023-05-12T05:14:52.158Z,10.95
2023-05-12T05:17:18.551Z,9.68
2023-05-12T05:19:54.711Z,8.95
2023-05-12T05:22:24.547Z,9.80
2023-05-12T05:24:51.767Z,9.05
2023-05-12T05:27:18.273Z,10.32
2023-05-12T05:29:44.787Z,8.43
2023-05-12T05:32:13.755Z,9.25
2023-05-12T05:34:40.420Z,8.65
2023-05-12T05:37:09.745Z,8.65
2023-05-12T05:39:36.218Z,9.00
2023-05-12T05:42:02.697Z,6.32
2023-05-12T05:44:33.715Z,7.90
2023-05-12T05:47:00.393Z,6.78
2023-05-12T05:49:26.795Z,7.90
2023-05-12T05:51:53.304Z,7.82
2023-05-12T05:54:19.807Z,11.25
2023-05-12T05:56:46.361Z,7.63
2023-05-12T05:59:14.270Z,7.78
2023-05-12T06:01:40.735Z,8.25
2023-05-12T06:04:07.291Z,9.05
2023-05-12T06:06:33.662Z,6.93
2023-05-12T06:09:00.315Z,6.60
2023-05-12T06:11:26.834Z,7.90
2023-05-12T06:13:53.218Z,6.47
2023-05-12T06:16:19.621Z,6.63
2023-05-12T06:18:49.185Z,7.68
2023-05-12T06:21:15.729Z,6.78
2023-05-12T06:23:44.710Z,6.10
2023-05-12T06:26:11.736Z,6.45
2023-05-12T06:28:38.172Z,5.78
2023-05-12T06:31:08.637Z,5.10
2023-05-12T06:33:35.254Z,4.90
2023-05-12T06:36:01.741Z,5.72
2023-05-12T06:38:28.134Z,5.53
2023-05-12T06:40:56.957Z,5.85
2023-05-12T06:43:23.411Z,5.50
2023-05-12T06:45:49.994Z,5.10
2023-05-12T06:48:18.628Z,5.40
2023-05-12T06:50:45.579Z,4.40
2023-05-12T06:53:12.007Z,4.65
2023-05-12T06:55:38.358Z,5.00
2023-05-12T06:58:09.706Z,5.38
2023-05-12T07:00:36.277Z,6.60
2023-05-12T07:03:02.733Z,5.63
2023-05-12T07:05:29.291Z,4.13
2023-05-12T07:07:55.819Z,4.93
2023-05-12T07:10:22.411Z,5.55
2023-05-12T07:12:48.885Z,4.47
2023-05-12T07:15:17.741Z,4.50
2023-05-12T07:17:44.273Z,5.03
2023-05-12T07:20:10.911Z,4.32
2023-05-12T07:22:38.856Z,4.97
2023-05-12T07:25:06.750Z,3.50
2023-05-12T07:27:33.210Z,4.35
2023-05-12T07:30:00.192Z,4.45
2023-05-12T07:32:27.075Z,4.43
2023-05-12T07:34:53.608Z,4.05
2023-05-12T07:37:20.037Z,12.65
2023-05-12T07:39:46.607Z,6.97
2023-05-12T07:42:13.014Z,4.93
2023-05-12T07:44:39.502Z,4.47
2023-05-12T07:47:08.364Z,4.13
2023-05-12T07:49:34.785Z,4.35
2023-05-12T07:52:01.288Z,3.47
2023-05-12T07:54:27.807Z,3.88
2023-05-12T07:56:59.198Z,3.47
2023-05-12T07:59:25.609Z,3.50
2023-05-12T08:01:52.106Z,3.30
2023-05-12T08:04:18.663Z,3.22
2023-05-12T08:06:45.347Z,2.92
2023-05-12T08:09:11.835Z,2.47
2023-05-12T08:11:38.344Z,3.17
2023-05-12T08:14:04.794Z,2.22
2023-05-12T08:16:31.311Z,2.67
2023-05-12T08:18:58.712Z,2.63
2023-05-12T08:21:25.301Z,2.63
2023-05-12T08:23:51.866Z,2.67
2023-05-12T08:26:18.290Z,2.45
2023-05-12T08:28:46.295Z,2.72
2023-05-12T08:31:15.573Z,2.08
2023-05-12T08:33:45.154Z,2.97
2023-05-12T08:36:12.062Z,2.97
2023-05-12T08:38:43.392Z,2.00
2023-05-12T08:41:22.176Z,2.30
2023-05-12T08:43:52.772Z,2.17
2023-05-12T08:46:20.072Z,2.60
2023-05-12T08:48:47.566Z,2.55
2023-05-12T08:51:14.419Z,2.60
2023-05-12T08:53:42.636Z,2.63
2023-05-12T08:58:42.715Z,2.40
2023-05-12T09:01:11.424Z,2.40
2023-05-12T09:03:38.974Z,2.80
2023-05-12T09:06:06.632Z,2.10
2023-05-12T09:08:34.792Z,2.55
2023-05-12T09:11:01.832Z,2.38
2023-05-12T09:13:53.412Z,2.38
2023-05-12T09:16:24.645Z,2.72
2023-05-12T09:18:55.966Z,2.50
2023-05-12T09:21:23.249Z,2.58
2023-05-12T09:24:00.017Z,2.67
2023-05-12T09:26:28.554Z,2.50
2023-05-12T09:29:08.783Z,2.80
2023-05-12T09:31:35.581Z,2.40
2023-05-12T09:34:08.119Z,2.42
2023-05-12T09:36:37.767Z,2.80
2023-05-12T09:39:06.931Z,2.58
2023-05-12T09:41:37.768Z,2.42
2023-05-12T09:44:05.826Z,3.00
2023-05-12T09:46:32.677Z,2.83
2023-05-12T09:48:59.465Z,2.35
2023-05-12T09:51:26.940Z,2.35
2023-05-12T09:53:53.476Z,2.80
2023-05-12T09:56:19.842Z,2.92
2023-05-12T09:58:49.018Z,2.70
2023-05-12T10:01:23.875Z,2.83
2023-05-12T10:03:59.829Z,2.80
2023-05-12T10:06:40.858Z,3.03
2023-05-12T10:09:18.052Z,2.80
2023-05-12T10:11:46.749Z,2.60
2023-05-12T10:14:14.235Z,3.05
2023-05-12T10:16:41.654Z,3.00
2023-05-12T10:19:08.771Z,2.72
2023-05-12T10:21:40.068Z,2.63
2023-05-12T10:24:07.572Z,3.45
2023-05-12T10:26:36.807Z,2.75
2023-05-12T10:29:03.461Z,2.55
2023-05-12T10:31:30.738Z,2.97
2023-05-12T10:34:01.826Z,2.70
2023-05-12T10:36:29.060Z,3.00
2023-05-12T10:38:56.983Z,2.22
2023-05-12T10:41:31.049Z,2.38
2023-05-12T10:44:02.395Z,2.80
2023-05-12T10:46:30.689Z,2.67
2023-05-12T10:49:06.245Z,3.20
2023-05-12T10:51:44.529Z,2.70
2023-05-12T10:54:18.389Z,2.70
2023-05-12T10:56:50.673Z,2.78
2023-05-12T10:59:24.998Z,2.75
2023-05-12T11:01:59.065Z,2.72
2023-05-12T11:04:45.896Z,2.75
2023-05-12T11:07:15.634Z,2.40
2023-05-12T11:09:53.764Z,3.00
2023-05-12T11:12:32.580Z,2.45
2023-05-12T11:15:00.763Z,5.07
2023-05-12T11:17:29.758Z,2.70
2023-05-12T11:19:56.836Z,2.38
2023-05-12T11:22:23.992Z,2.83
2023-05-12T11:24:54.066Z,1.98
2023-05-12T11:27:23.183Z,2.17
2023-05-12T11:30:00.466Z,2.80
2023-05-12T11:32:27.652Z,2.17
2023-05-12T11:34:54.283Z,2.38
2023-05-12T11:37:21.370Z,2.47
2023-05-12T11:39:53.289Z,2.70
2023-05-12T11:42:20.666Z,2.60
2023-05-12T11:44:49.880Z,3.08
2023-05-12T11:47:19.701Z,2.83
2023-05-12T11:49:57.421Z,3.17
2023-05-12T11:52:24.974Z,3.15
2023-05-12T11:55:00.885Z,3.50
2023-05-12T11:57:28.993Z,2.75
2023-05-12T12:00:07.760Z,2.60
2023-05-12T12:02:36.671Z,2.60
2023-05-12T12:05:03.565Z,1.98
2023-05-12T12:07:31.967Z,1.95
2023-05-12T12:09:59.012Z,2.40
2023-05-12T12:12:27.771Z,2.08
2023-05-12T12:14:59.926Z,2.13
2023-05-12T12:17:30.758Z,2.08
2023-05-12T12:19:58.028Z,2.20
2023-05-12T12:22:24.576Z,2.10
2023-05-12T12:24:51.046Z,1.73
2023-05-12T12:27:17.390Z,3.40
2023-05-12T12:29:43.776Z,1.75
2023-05-12T12:32:10.516Z,1.85
2023-05-12T12:34:36.917Z,1.80
2023-05-12T12:37:03.382Z,2.03
2023-05-12T12:39:29.763Z,1.80
2023-05-12T12:41:56.125Z,1.80
2023-05-12T12:44:22.906Z,1.92
2023-05-12T12:46:49.358Z,1.85
2023-05-12T12:49:15.852Z,1.80
2023-05-12T12:51:46.901Z,1.90
2023-05-12T12:54:14.760Z,1.83
2023-05-12T12:56:43.458Z,1.70
2023-05-12T12:59:10.128Z,2.20
2023-05-12T13:01:39.169Z,1.60
2023-05-12T13:04:05.694Z,1.75
2023-05-12T13:06:34.933Z,1.90
2023-05-12T13:09:01.692Z,1.95
2023-05-12T13:11:28.185Z,2.03
2023-05-12T13:13:57.104Z,2.33
2023-05-12T13:16:23.633Z,3.08
2023-05-12T13:18:50.059Z,2.83
2023-05-12T13:21:17.882Z,2.50
2023-05-12T13:23:44.247Z,2.67
2023-05-12T13:26:10.717Z,3.22
2023-05-12T13:28:37.231Z,3.08
2023-05-12T13:31:03.719Z,3.42
2023-05-12T13:33:30.199Z,2.50
2023-05-12T13:35:57.065Z,2.72
2023-05-12T13:38:23.420Z,2.42
2023-05-12T13:40:49.770Z,2.17
2023-05-12T13:43:16.325Z,1.30
2023-05-12T13:45:45.305Z,1.63
2023-05-12T13:48:11.753Z,1.50
2023-05-12T13:50:38.464Z,1.70
2023-05-12T13:53:04.926Z,1.67
2023-05-12T13:55:33.782Z,1.75
2023-05-12T13:58:00.350Z,1.30
2023-05-12T14:00:29.683Z,1.10
2023-05-12T14:02:57.662Z,1.45
2023-05-12T14:05:24.498Z,1.33
2023-05-12T14:07:51.249Z,1.40
2023-05-12T14:10:18.557Z,1.50
2023-05-12T14:12:47.969Z,1.05
2023-05-12T14:15:26.556Z,1.02
2023-05-12T14:18:00.839Z,1.40
2023-05-12T14:20:27.195Z,1.20
2023-05-12T14:22:53.980Z,1.13
2023-05-12T14:25:20.593Z,1.20
2023-05-12T14:27:47.197Z,1.02
2023-05-12T14:30:16.559Z,1.20
2023-05-12T14:32:48.137Z,1.15
2023-05-12T14:35:14.529Z,1.08
2023-05-12T14:37:41.015Z,1.27
2023-05-12T14:40:08.483Z,1.20
2023-05-12T14:42:34.933Z,1.00
2023-05-12T14:45:03.753Z,0.55
2023-05-12T14:47:32.821Z,0.93
2023-05-12T14:49:59.233Z,0.80
2023-05-12T14:52:25.727Z,0.70
2023-05-12T14:54:52.832Z,0.80
2023-05-12T14:57:21.612Z,0.52
2023-05-12T14:59:48.859Z,0.65
2023-05-12T15:02:15.411Z,0.90
2023-05-12T15:04:43.987Z,0.80
2023-05-12T15:07:10.415Z,1.10
2023-05-12T15:09:36.972Z,0.90
2023-05-12T15:12:03.973Z,0.70
2023-05-12T15:14:30.476Z,0.77
2023-05-12T15:16:57.081Z,0.60
2023-05-12T15:19:23.606Z,0.60
2023-05-12T15:21:50.088Z,0.95
2023-05-12T15:24:16.872Z,0.73
2023-05-12T15:26:45.955Z,0.68
2023-05-12T15:29:12.466Z,0.80
2023-05-12T15:31:39.258Z,0.88
2023-05-12T15:34:06.169Z,0.60
2023-05-12T15:36:32.564Z,0.98
2023-05-12T15:38:59.155Z,0.80
2023-05-12T15:41:27.855Z,0.70
2023-05-12T15:43:54.197Z,0.80
2023-05-12T15:46:23.253Z,0.68
2023-05-12T15:48:49.813Z,0.80
2023-05-12T15:51:16.300Z,0.70
2023-05-12T15:53:43.416Z,0.60
2023-05-12T15:56:09.815Z,0.75
2023-05-12T15:58:38.580Z,0.75
2023-05-12T16:01:05.899Z,0.80
2023-05-12T16:03:32.743Z,0.52
2023-05-12T16:05:59.135Z,0.73
2023-05-12T16:08:30.406Z,0.68
2023-05-12T16:10:56.847Z,0.52
2023-05-12T16:13:23.268Z,0.63
2023-05-12T16:15:50.714Z,0.50
2023-05-12T16:18:22.308Z,0.80
2023-05-12T16:20:49.663Z,0.73
2023-05-12T16:23:16.091Z,0.65
2023-05-12T16:25:42.677Z,0.63
2023-05-12T16:28:12.190Z,0.60
2023-05-12T16:30:38.558Z,0.43
2023-05-12T16:33:07.549Z,0.70
2023-05-12T16:35:34.110Z,0.60
2023-05-12T16:38:00.625Z,0.77
2023-05-12T16:40:27.115Z,0.50
2023-05-12T16:42:54.800Z,0.57
2023-05-12T16:45:22.295Z,0.63
2023-05-12T16:47:49.568Z,0.70
2023-05-12T16:50:15.952Z,1.60
2023-05-12T16:52:42.748Z,0.40
2023-05-12T16:55:09.790Z,0.77
2023-05-12T16:57:36.740Z,0.55
2023-05-12T17:00:06.055Z,0.50
2023-05-12T17:02:32.973Z,0.82
2023-05-12T17:04:59.394Z,0.60
2023-05-12T17:07:26.412Z,1.00
2023-05-12T17:09:52.751Z,0.85
2023-05-12T17:12:19.186Z,0.90
2023-05-12T17:14:50.178Z,2.75
2023-05-12T17:17:22.564Z,1.05
2023-05-12T17:19:49.033Z,0.60
2023-05-12T17:22:15.877Z,0.52
2023-05-12T17:24:42.292Z,0.50
2023-05-12T17:27:11.152Z,0.52
2023-05-12T17:29:37.927Z,0.30
2023-05-12T17:32:04.960Z,0.52
2023-05-12T17:34:34.209Z,0.50
2023-05-12T17:37:02.805Z,0.50
2023-05-12T17:39:29.270Z,0.70
2023-05-12T17:41:55.648Z,0.32
2023-05-12T17:44:22.318Z,0.60
2023-05-12T17:46:49.224Z,0.47
2023-05-12T17:49:15.878Z,0.43
2023-05-12T17:51:42.939Z,0.43
2023-05-12T17:54:09.303Z,0.45
2023-05-12T17:56:35.766Z,0.40
2023-05-12T17:59:03.279Z,2.10
2023-05-12T18:01:32.093Z,1.73
2023-05-12T18:03:58.697Z,1.00
2023-05-12T18:06:28.074Z,1.40
2023-05-12T18:08:54.624Z,1.75
2023-05-12T18:11:21.213Z,1.58
2023-05-12T18:13:48.014Z,2.05
2023-05-12T18:16:27.499Z,1.90
2023-05-12T18:18:55.756Z,1.60
2023-05-12T18:21:23.616Z,1.00
2023-05-12T18:23:50.281Z,0.70
2023-05-12T18:26:16.883Z,0.80
2023-05-12T18:28:43.418Z,0.40
2023-05-12T18:31:15.903Z,0.70
2023-05-12T18:33:46.118Z,0.65
2023-05-12T18:36:13.072Z,0.60
2023-05-12T18:38:39.506Z,0.60
2023-05-12T18:41:06.261Z,0.60
2023-05-12T18:43:32.822Z,2.58
2023-05-12T18:46:00.893Z,2.10
2023-05-12T18:48:27.679Z,0.80
2023-05-12T18:50:57.356Z,1.13
2023-05-12T18:53:26.736Z,0.60
2023-05-12T18:55:55.776Z,0.88
2023-05-12T18:58:22.778Z,0.60
2023-05-12T19:00:49.274Z,1.17
2023-05-12T19:03:16.204Z,0.70
2023-05-12T19:05:46.502Z,0.30
2023-05-12T19:08:13.155Z,0.50
2023-05-12T19:10:42.896Z,0.40
2023-05-12T19:13:09.869Z,0.50
2023-05-12T19:15:36.275Z,0.60
2023-05-12T19:18:02.892Z,0.70
2023-05-12T19:20:30.667Z,0.50
2023-05-12T19:22:57.308Z,0.70
2023-05-12T19:25:29.087Z,0.68
2023-05-12T19:28:00.183Z,0.68
2023-05-12T19:30:28.115Z,0.40
2023-05-12T19:32:54.673Z,0.50
2023-05-12T19:35:22.818Z,0.50
2023-05-12T19:37:49.647Z,0.63
2023-05-12T19:40:16.299Z,0.57
2023-05-12T19:42:42.939Z,0.28
2023-05-12T19:45:10.456Z,0.80
2023-05-12T19:47:37.736Z,0.75
2023-05-12T19:50:04.991Z,0.50
2023-05-12T19:52:31.663Z,0.50
2023-05-12T19:54:59.391Z,0.60
2023-05-12T19:57:29.693Z,0.90
2023-05-12T19:59:56.165Z,0.80
2023-05-12T20:02:28.374Z,0.50
2023-05-12T20:04:54.917Z,0.50
2023-05-12T20:07:21.686Z,0.57
2023-05-12T20:09:48.206Z,0.77
2023-05-12T20:12:15.184Z,0.70
2023-05-12T20:14:45.433Z,0.60
2023-05-12T20:17:13.716Z,0.73
2023-05-12T20:19:40.327Z,0.60
2023-05-12T20:22:06.720Z,1.98
2023-05-12T20:24:33.261Z,0.57
2023-05-12T20:27:00.433Z,0.90
2023-05-12T20:29:30.277Z,0.70
2023-05-12T20:31:59.021Z,0.60
2023-05-12T20:34:25.524Z,0.57
2023-05-12T20:36:54.212Z,0.60
2023-05-12T20:39:20.593Z,0.73
2023-05-12T20:41:47.100Z,0.60
2023-05-12T20:44:16.141Z,0.70
2023-05-12T20:46:48.098Z,0.55
2023-05-12T20:51:40.923Z,0.80
2023-05-12T20:54:07.412Z,0.88
2023-05-12T20:56:33.793Z,0.60
2023-05-12T20:59:00.284Z,0.60
2023-05-12T21:01:27.140Z,1.00
2023-05-12T21:03:53.733Z,0.50
2023-05-12T21:06:20.082Z,0.80
2023-05-12T21:08:46.790Z,0.85
2023-05-12T21:11:17.813Z,0.90
2023-05-12T21:13:46.881Z,0.60
2023-05-12T21:16:16.359Z,0.57
2023-05-12T21:18:43.257Z,0.80
2023-05-12T21:21:11.968Z,0.65
2023-05-12T21:23:41.260Z,1.00
2023-05-12T21:26:10.265Z,0.68
2023-05-12T21:28:37.174Z,0.80
2023-05-12T21:31:03.728Z,0.82
2023-05-12T21:33:30.198Z,0.70
2023-05-12T21:35:56.586Z,0.60
2023-05-12T21:38:23.085Z,0.65
2023-05-12T21:40:51.810Z,0.90
2023-05-12T21:43:20.574Z,0.90
2023-05-12T21:45:47.075Z,0.80
2023-05-12T21:48:13.656Z,0.90
2023-05-12T21:50:40.894Z,0.55
2023-05-12T21:53:07.659Z,0.60
2023-05-12T21:55:34.187Z,0.60
2023-05-12T21:58:03.299Z,0.95
2023-05-12T22:00:29.767Z,0.80
2023-05-12T22:02:56.446Z,0.85
2023-05-12T22:05:26.022Z,0.80
2023-05-12T22:07:52.430Z,0.77
2023-05-12T22:10:21.749Z,0.80
2023-05-12T22:12:48.284Z,0.73
2023-05-12T22:15:14.669Z,0.75
2023-05-12T22:17:45.445Z,1.00
2023-05-12T22:20:12.642Z,0.73
2023-05-12T22:22:39.014Z,0.75
2023-05-12T22:25:05.845Z,0.75
2023-05-12T22:27:32.352Z,0.98
2023-05-12T22:29:58.847Z,0.93
2023-05-12T22:32:25.239Z,0.70
2023-05-12T22:34:55.076Z,1.00
2023-05-12T22:37:22.580Z,0.77
2023-05-12T22:39:49.125Z,0.70
2023-05-12T22:42:15.493Z,0.80
2023-05-12T22:44:41.974Z,1.00
2023-05-12T22:47:08.578Z,0.80
2023-05-12T22:49:37.598Z,0.88
2023-05-12T22:52:04.609Z,0.88
2023-05-12T22:54:33.179Z,1.00
2023-05-12T22:57:01.841Z,1.17
2023-05-12T22:59:33.345Z,1.10
2023-05-12T23:01:59.719Z,1.20
2023-05-12T23:04:26.192Z,0.93
2023-05-12T23:06:52.923Z,0.88
2023-05-12T23:09:19.251Z,0.85
2023-05-12T23:11:45.670Z,1.08
2023-05-12T23:14:12.665Z,0.77
2023-05-12T23:16:39.172Z,0.80
2023-05-12T23:19:08.132Z,0.98
2023-05-12T23:21:34.885Z,1.00
2023-05-12T23:24:03.973Z,1.38
2023-05-12T23:26:30.538Z,1.02
2023-05-12T23:28:57.054Z,1.42
2023-05-12T23:31:26.141Z,1.05
2023-05-12T23:33:52.737Z,1.10
2023-05-12T23:36:21.643Z,1.25
2023-05-12T23:38:52.817Z,1.67
2023-05-12T23:41:19.309Z,1.20
2023-05-12T23:43:45.808Z,1.60
2023-05-12T23:46:12.289Z,1.60
2023-05-12T23:48:38.678Z,1.02
2023-05-12T23:51:05.090Z,1.60
2023-05-12T23:53:31.541Z,1.00
2023-05-12T23:55:57.886Z,1.35
2023-05-12T23:58:26.924Z,1.63
